sensor_id;sensor_type;location;lat;lon;timestamp;P1;durP1;ratioP1;P2;durP2;ratioP2
83306;SDS011;73223;48.584;13.460;2023-11-19T00:00:47;11.75;;;5.38;;
83306;SDS011;73223;48.584;13.460;2023-11-19T00:03:12;13.73;;;5.00;;
83306;SDS011;73223;48.584;13.460;2023-11-19T00:05:38;13.63;;;5.60;;
83306;SDS011;73223;48.584;13.460;2023-11-19T00:08:03;13.50;;;5.53;;
83306;SDS011;73223;48.584;13.460;2023-11-19T00:12:56;9.77;;;4.03;;
83306;SDS011;73223;48.584;13.460;2023-11-19T00:15:22;11.35;;;3.75;;
83306;SDS011;73223;48.584;13.460;2023-11-19T00:20:15;9.85;;;3.78;;
83306;SDS011;73223;48.584;13.460;2023-11-19T00:22:44;11.10;;;3.80;;
83306;SDS011;73223;48.584;13.460;2023-11-19T00:27:36;9.93;;;4.17;;
83306;SDS011;73223;48.584;13.460;2023-11-19T00:30:07;9.55;;;4.20;;
83306;SDS011;73223;48.584;13.460;2023-11-19T00:32:35;11.63;;;4.50;;
83306;SDS011;73223;48.584;13.460;2023-11-19T00:35:03;9.73;;;4.20;;
83306;SDS011;73223;48.584;13.460;2023-11-19T00:37:29;11.35;;;5.03;;
83306;SDS011;73223;48.584;13.460;2023-11-19T00:39:54;14.40;;;4.60;;
83306;SDS011;73223;48.584;13.460;2023-11-19T00:42:21;23.73;;;4.65;;
83306;SDS011;73223;48.584;13.460;2023-11-19T00:44:46;96.45;;;7.60;;
83306;SDS011;73223;48.584;13.460;2023-11-19T00:47:12;78.07;;;6.75;;
83306;SDS011;73223;48.584;13.460;2023-11-19T00:49:37;58.85;;;6.43;;
83306;SDS011;73223;48.584;13.460;2023-11-19T00:52:02;89.65;;;7.20;;
83306;SDS011;73223;48.584;13.460;2023-11-19T00:54:28;23.52;;;5.22;;
83306;SDS011;73223;48.584;13.460;2023-11-19T00:56:53;18.38;;;5.10;;
83306;SDS011;73223;48.584;13.460;2023-11-19T00:59:19;12.93;;;4.93;;
83306;SDS011;73223;48.584;13.460;2023-11-19T01:01:44;33.25;;;5.68;;
83306;SDS011;73223;48.584;13.460;2023-11-19T01:04:10;25.83;;;5.55;;
83306;SDS011;73223;48.584;13.460;2023-11-19T01:06:35;30.02;;;6.20;;
83306;SDS011;73223;48.584;13.460;2023-11-19T01:09:00;12.43;;;5.72;;
83306;SDS011;73223;48.584;13.460;2023-11-19T01:11:26;12.90;;;5.33;;
83306;SDS011;73223;48.584;13.460;2023-11-19T01:13:51;11.35;;;5.35;;
83306;SDS011;73223;48.584;13.460;2023-11-19T01:16:17;11.73;;;5.30;;
83306;SDS011;73223;48.584;13.460;2023-11-19T01:18:42;12.63;;;5.93;;
83306;SDS011;73223;48.584;13.460;2023-11-19T01:21:07;16.53;;;6.00;;
83306;SDS011;73223;48.584;13.460;2023-11-19T01:23:33;13.63;;;6.03;;
83306;SDS011;73223;48.584;13.460;2023-11-19T01:25:59;15.45;;;5.75;;
83306;SDS011;73223;48.584;13.460;2023-11-19T01:28:24;13.13;;;5.63;;
83306;SDS011;73223;48.584;13.460;2023-11-19T01:30:53;11.60;;;5.35;;
83306;SDS011;73223;48.584;13.460;2023-11-19T01:33:18;11.40;;;5.32;;
83306;SDS011;73223;48.584;13.460;2023-11-19T01:35:44;13.90;;;5.72;;
83306;SDS011;73223;48.584;13.460;2023-11-19T01:38:09;10.93;;;5.35;;
83306;SDS011;73223;48.584;13.460;2023-11-19T01:40:35;12.88;;;5.35;;
83306;SDS011;73223;48.584;13.460;2023-11-19T01:43:04;12.32;;;5.93;;
83306;SDS011;73223;48.584;13.460;2023-11-19T01:45:29;12.32;;;5.43;;
83306;SDS011;73223;48.584;13.460;2023-11-19T01:47:59;13.48;;;5.45;;
83306;SDS011;73223;48.584;13.460;2023-11-19T01:50:27;13.38;;;5.47;;
83306;SDS011;73223;48.584;13.460;2023-11-19T01:52:53;13.02;;;5.57;;
83306;SDS011;73223;48.584;13.460;2023-11-19T01:55:20;10.63;;;5.13;;
83306;SDS011;73223;48.584;13.460;2023-11-19T01:57:46;14.98;;;5.45;;
83306;SDS011;73223;48.584;13.460;2023-11-19T02:00:12;12.23;;;5.50;;
83306;SDS011;73223;48.584;13.460;2023-11-19T02:02:39;11.55;;;5.10;;
83306;SDS011;73223;48.584;13.460;2023-11-19T02:05:05;11.35;;;5.05;;
83306;SDS011;73223;48.584;13.460;2023-11-19T02:07:31;13.93;;;5.72;;
83306;SDS011;73223;48.584;13.460;2023-11-19T02:09:57;12.77;;;5.15;;
83306;SDS011;73223;48.584;13.460;2023-11-19T02:12:25;13.48;;;5.30;;
83306;SDS011;73223;48.584;13.460;2023-11-19T02:14:53;10.95;;;4.80;;
83306;SDS011;73223;48.584;13.460;2023-11-19T02:17:31;12.02;;;5.43;;
83306;SDS011;73223;48.584;13.460;2023-11-19T02:19:57;11.95;;;4.63;;
83306;SDS011;73223;48.584;13.460;2023-11-19T02:22:23;11.45;;;5.10;;
83306;SDS011;73223;48.584;13.460;2023-11-19T02:24:49;19.88;;;5.68;;
83306;SDS011;73223;48.584;13.460;2023-11-19T02:27:40;15.30;;;5.53;;
83306;SDS011;73223;48.584;13.460;2023-11-19T02:30:20;20.65;;;5.45;;
83306;SDS011;73223;48.584;13.460;2023-11-19T02:32:50;10.57;;;4.50;;
83306;SDS011;73223;48.584;13.460;2023-11-19T02:35:16;9.50;;;4.47;;
83306;SDS011;73223;48.584;13.460;2023-11-19T02:37:41;11.63;;;4.73;;
83306;SDS011;73223;48.584;13.460;2023-11-19T02:40:07;44.13;;;6.03;;
83306;SDS011;73223;48.584;13.460;2023-11-19T02:42:34;9.63;;;4.20;;
83306;SDS011;73223;48.584;13.460;2023-11-19T02:45:00;13.27;;;4.75;;
83306;SDS011;73223;48.584;13.460;2023-11-19T02:47:26;11.38;;;4.97;;
83306;SDS011;73223;48.584;13.460;2023-11-19T02:49:55;11.85;;;4.82;;
83306;SDS011;73223;48.584;13.460;2023-11-19T02:52:20;11.55;;;4.43;;
83306;SDS011;73223;48.584;13.460;2023-11-19T02:54:46;10.70;;;4.65;;
83306;SDS011;73223;48.584;13.460;2023-11-19T02:57:11;9.73;;;4.23;;
83306;SDS011;73223;48.584;13.460;2023-11-19T02:59:38;10.43;;;4.63;;
83306;SDS011;73223;48.584;13.460;2023-11-19T03:02:06;12.50;;;4.95;;
83306;SDS011;73223;48.584;13.460;2023-11-19T03:04:32;10.38;;;4.60;;
83306;SDS011;73223;48.584;13.460;2023-11-19T03:06:58;11.00;;;4.75;;
83306;SDS011;73223;48.584;13.460;2023-11-19T03:09:24;10.00;;;4.38;;
83306;SDS011;73223;48.584;13.460;2023-11-19T03:11:49;12.90;;;5.07;;
83306;SDS011;73223;48.584;13.460;2023-11-19T03:14:15;10.30;;;4.28;;
83306;SDS011;73223;48.584;13.460;2023-11-19T03:16:40;10.47;;;4.40;;
83306;SDS011;73223;48.584;13.460;2023-11-19T03:19:05;11.27;;;4.25;;
83306;SDS011;73223;48.584;13.460;2023-11-19T03:21:31;14.00;;;4.33;;
83306;SDS011;73223;48.584;13.460;2023-11-19T03:23:57;9.85;;;4.20;;
83306;SDS011;73223;48.584;13.460;2023-11-19T03:26:25;20.05;;;4.00;;
83306;SDS011;73223;48.584;13.460;2023-11-19T03:28:51;9.35;;;4.00;;
83306;SDS011;73223;48.584;13.460;2023-11-19T03:31:17;9.15;;;4.00;;
83306;SDS011;73223;48.584;13.460;2023-11-19T03:33:42;10.13;;;4.37;;
83306;SDS011;73223;48.584;13.460;2023-11-19T03:36:07;36.97;;;5.00;;
83306;SDS011;73223;48.584;13.460;2023-11-19T03:38:34;11.95;;;4.18;;
83306;SDS011;73223;48.584;13.460;2023-11-19T03:40:59;9.50;;;4.13;;
83306;SDS011;73223;48.584;13.460;2023-11-19T03:43:24;10.32;;;4.57;;
83306;SDS011;73223;48.584;13.460;2023-11-19T03:45:50;10.13;;;4.33;;
83306;SDS011;73223;48.584;13.460;2023-11-19T03:48:15;25.92;;;5.63;;
83306;SDS011;73223;48.584;13.460;2023-11-19T03:50:41;12.50;;;4.50;;
83306;SDS011;73223;48.584;13.460;2023-11-19T03:53:06;11.23;;;4.63;;
83306;SDS011;73223;48.584;13.460;2023-11-19T03:55:32;10.52;;;4.78;;
83306;SDS011;73223;48.584;13.460;2023-11-19T03:57:57;10.13;;;4.18;;
83306;SDS011;73223;48.584;13.460;2023-11-19T04:00:23;9.68;;;3.88;;
83306;SDS011;73223;48.584;13.460;2023-11-19T04:02:48;9.33;;;4.30;;
83306;SDS011;73223;48.584;13.460;2023-11-19T04:05:13;9.73;;;3.95;;
83306;SDS011;73223;48.584;13.460;2023-11-19T04:07:39;9.93;;;4.15;;
83306;SDS011;73223;48.584;13.460;2023-11-19T04:14:56;10.23;;;4.10;;
83306;SDS011;73223;48.584;13.460;2023-11-19T04:17:22;9.47;;;4.37;;
83306;SDS011;73223;48.584;13.460;2023-11-19T04:19:48;9.23;;;4.00;;
83306;SDS011;73223;48.584;13.460;2023-11-19T04:22:13;8.77;;;4.07;;
83306;SDS011;73223;48.584;13.460;2023-11-19T04:24:38;9.20;;;3.70;;
83306;SDS011;73223;48.584;13.460;2023-11-19T04:27:05;9.27;;;3.90;;
83306;SDS011;73223;48.584;13.460;2023-11-19T04:29:31;9.98;;;4.32;;
83306;SDS011;73223;48.584;13.460;2023-11-19T04:31:56;9.63;;;4.18;;
83306;SDS011;73223;48.584;13.460;2023-11-19T04:34:22;9.40;;;3.97;;
83306;SDS011;73223;48.584;13.460;2023-11-19T04:36:47;9.77;;;3.90;;
83306;SDS011;73223;48.584;13.460;2023-11-19T04:39:12;8.13;;;3.55;;
83306;SDS011;73223;48.584;13.460;2023-11-19T04:41:46;9.10;;;3.58;;
83306;SDS011;73223;48.584;13.460;2023-11-19T04:44:13;8.68;;;3.63;;
83306;SDS011;73223;48.584;13.460;2023-11-19T04:46:40;10.20;;;4.20;;
83306;SDS011;73223;48.584;13.460;2023-11-19T04:49:06;9.07;;;3.55;;
83306;SDS011;73223;48.584;13.460;2023-11-19T04:51:31;11.47;;;3.80;;
83306;SDS011;73223;48.584;13.460;2023-11-19T04:54:02;8.82;;;3.72;;
83306;SDS011;73223;48.584;13.460;2023-11-19T04:56:28;12.05;;;4.60;;
83306;SDS011;73223;48.584;13.460;2023-11-19T04:58:54;11.90;;;4.27;;
83306;SDS011;73223;48.584;13.460;2023-11-19T05:01:19;10.43;;;4.50;;
83306;SDS011;73223;48.584;13.460;2023-11-19T05:03:45;9.00;;;3.90;;
83306;SDS011;73223;48.584;13.460;2023-11-19T05:06:10;8.37;;;3.60;;
83306;SDS011;73223;48.584;13.460;2023-11-19T05:08:36;8.57;;;3.43;;
83306;SDS011;73223;48.584;13.460;2023-11-19T05:11:01;6.93;;;3.00;;
83306;SDS011;73223;48.584;13.460;2023-11-19T05:13:26;8.83;;;3.80;;
83306;SDS011;73223;48.584;13.460;2023-11-19T05:15:52;8.15;;;3.28;;
83306;SDS011;73223;48.584;13.460;2023-11-19T05:18:17;8.20;;;3.23;;
83306;SDS011;73223;48.584;13.460;2023-11-19T05:20:43;10.82;;;3.13;;
83306;SDS011;73223;48.584;13.460;2023-11-19T05:23:08;7.57;;;3.17;;
83306;SDS011;73223;48.584;13.460;2023-11-19T05:25:34;8.73;;;3.30;;
83306;SDS011;73223;48.584;13.460;2023-11-19T05:27:59;7.40;;;3.27;;
83306;SDS011;73223;48.584;13.460;2023-11-19T05:30:24;7.47;;;2.77;;
83306;SDS011;73223;48.584;13.460;2023-11-19T05:32:49;8.03;;;3.03;;
83306;SDS011;73223;48.584;13.460;2023-11-19T05:35:15;8.52;;;3.35;;
83306;SDS011;73223;48.584;13.460;2023-11-19T05:37:40;8.93;;;3.05;;
83306;SDS011;73223;48.584;13.460;2023-11-19T05:40:06;7.40;;;2.83;;
83306;SDS011;73223;48.584;13.460;2023-11-19T05:42:39;7.93;;;3.17;;
83306;SDS011;73223;48.584;13.460;2023-11-19T05:45:04;8.80;;;3.35;;
83306;SDS011;73223;48.584;13.460;2023-11-19T05:47:30;7.57;;;3.03;;
83306;SDS011;73223;48.584;13.460;2023-11-19T05:49:55;7.87;;;2.97;;
83306;SDS011;73223;48.584;13.460;2023-11-19T05:52:20;6.60;;;2.78;;
83306;SDS011;73223;48.584;13.460;2023-11-19T05:54:47;6.97;;;2.78;;
83306;SDS011;73223;48.584;13.460;2023-11-19T05:57:16;8.98;;;3.40;;
83306;SDS011;73223;48.584;13.460;2023-11-19T05:59:45;8.05;;;3.25;;
83306;SDS011;73223;48.584;13.460;2023-11-19T06:02:10;7.22;;;2.78;;
83306;SDS011;73223;48.584;13.460;2023-11-19T06:04:35;8.13;;;3.17;;
83306;SDS011;73223;48.584;13.460;2023-11-19T06:07:01;7.90;;;3.27;;
83306;SDS011;73223;48.584;13.460;2023-11-19T06:09:26;7.43;;;3.15;;
83306;SDS011;73223;48.584;13.460;2023-11-19T06:11:51;6.72;;;2.63;;
83306;SDS011;73223;48.584;13.460;2023-11-19T06:14:17;8.07;;;3.47;;
83306;SDS011;73223;48.584;13.460;2023-11-19T06:16:43;8.13;;;2.90;;
83306;SDS011;73223;48.584;13.460;2023-11-19T06:19:08;7.53;;;3.22;;
83306;SDS011;73223;48.584;13.460;2023-11-19T06:21:35;8.52;;;3.30;;
83306;SDS011;73223;48.584;13.460;2023-11-19T06:24:02;7.15;;;2.83;;
83306;SDS011;73223;48.584;13.460;2023-11-19T06:26:27;8.45;;;3.15;;
83306;SDS011;73223;48.584;13.460;2023-11-19T06:28:52;7.67;;;3.40;;
83306;SDS011;73223;48.584;13.460;2023-11-19T06:31:17;7.47;;;3.00;;
83306;SDS011;73223;48.584;13.460;2023-11-19T06:33:43;8.93;;;3.10;;
83306;SDS011;73223;48.584;13.460;2023-11-19T06:36:08;7.50;;;2.50;;
83306;SDS011;73223;48.584;13.460;2023-11-19T06:38:34;10.00;;;3.97;;
83306;SDS011;73223;48.584;13.460;2023-11-19T06:40:59;10.07;;;3.83;;
83306;SDS011;73223;48.584;13.460;2023-11-19T06:43:25;7.80;;;3.23;;
83306;SDS011;73223;48.584;13.460;2023-11-19T06:45:50;7.68;;;3.10;;
83306;SDS011;73223;48.584;13.460;2023-11-19T06:48:16;8.02;;;3.25;;
83306;SDS011;73223;48.584;13.460;2023-11-19T06:50:41;7.38;;;3.15;;
83306;SDS011;73223;48.584;13.460;2023-11-19T06:53:06;8.60;;;3.33;;
83306;SDS011;73223;48.584;13.460;2023-11-19T06:55:35;9.30;;;2.78;;
83306;SDS011;73223;48.584;13.460;2023-11-19T06:58:00;6.75;;;2.90;;
83306;SDS011;73223;48.584;13.460;2023-11-19T07:00:27;7.00;;;2.95;;
83306;SDS011;73223;48.584;13.460;2023-11-19T07:02:52;7.38;;;2.97;;
83306;SDS011;73223;48.584;13.460;2023-11-19T07:05:18;6.87;;;2.67;;
83306;SDS011;73223;48.584;13.460;2023-11-19T07:07:43;9.35;;;3.30;;
83306;SDS011;73223;48.584;13.460;2023-11-19T07:10:10;7.55;;;2.85;;
83306;SDS011;73223;48.584;13.460;2023-11-19T07:12:36;8.27;;;3.35;;
83306;SDS011;73223;48.584;13.460;2023-11-19T07:15:02;7.68;;;3.40;;
83306;SDS011;73223;48.584;13.460;2023-11-19T07:17:29;7.53;;;2.90;;
83306;SDS011;73223;48.584;13.460;2023-11-19T07:19:55;8.65;;;2.83;;
83306;SDS011;73223;48.584;13.460;2023-11-19T07:22:25;6.90;;;2.97;;
83306;SDS011;73223;48.584;13.460;2023-11-19T07:24:50;7.82;;;2.97;;
83306;SDS011;73223;48.584;13.460;2023-11-19T07:27:16;7.43;;;3.10;;
83306;SDS011;73223;48.584;13.460;2023-11-19T07:29:43;8.35;;;3.28;;
83306;SDS011;73223;48.584;13.460;2023-11-19T07:32:08;7.95;;;3.13;;
83306;SDS011;73223;48.584;13.460;2023-11-19T07:34:34;8.03;;;2.80;;
83306;SDS011;73223;48.584;13.460;2023-11-19T07:36:59;7.57;;;3.05;;
83306;SDS011;73223;48.584;13.460;2023-11-19T07:39:27;7.32;;;3.20;;
83306;SDS011;73223;48.584;13.460;2023-11-19T07:41:52;6.82;;;2.80;;
83306;SDS011;73223;48.584;13.460;2023-11-19T07:44:18;7.63;;;2.80;;
83306;SDS011;73223;48.584;13.460;2023-11-19T07:46:43;6.45;;;2.40;;
83306;SDS011;73223;48.584;13.460;2023-11-19T07:49:09;6.28;;;2.55;;
83306;SDS011;73223;48.584;13.460;2023-11-19T07:51:35;7.43;;;2.58;;
83306;SDS011;73223;48.584;13.460;2023-11-19T07:54:01;7.50;;;3.10;;
83306;SDS011;73223;48.584;13.460;2023-11-19T07:56:26;9.57;;;3.60;;
83306;SDS011;73223;48.584;13.460;2023-11-19T07:58:52;8.25;;;3.90;;
83306;SDS011;73223;48.584;13.460;2023-11-19T08:01:17;9.73;;;3.47;;
83306;SDS011;73223;48.584;13.460;2023-11-19T08:03:43;6.77;;;2.80;;
83306;SDS011;73223;48.584;13.460;2023-11-19T08:06:08;10.68;;;3.00;;
83306;SDS011;73223;48.584;13.460;2023-11-19T08:08:33;7.18;;;2.88;;
83306;SDS011;73223;48.584;13.460;2023-11-19T08:11:00;7.32;;;2.88;;
83306;SDS011;73223;48.584;13.460;2023-11-19T08:13:25;44.72;;;4.30;;
83306;SDS011;73223;48.584;13.460;2023-11-19T08:15:51;54.25;;;3.90;;
83306;SDS011;73223;48.584;13.460;2023-11-19T08:18:17;37.30;;;3.55;;
83306;SDS011;73223;48.584;13.460;2023-11-19T08:20:43;6.72;;;2.55;;
83306;SDS011;73223;48.584;13.460;2023-11-19T08:23:09;6.60;;;2.70;;
83306;SDS011;73223;48.584;13.460;2023-11-19T08:25:35;6.75;;;2.80;;
83306;SDS011;73223;48.584;13.460;2023-11-19T08:28:00;8.48;;;2.90;;
83306;SDS011;73223;48.584;13.460;2023-11-19T08:30:26;7.97;;;2.80;;
83306;SDS011;73223;48.584;13.460;2023-11-19T08:32:52;18.35;;;2.83;;
83306;SDS011;73223;48.584;13.460;2023-11-19T08:35:17;5.93;;;2.43;;
83306;SDS011;73223;48.584;13.460;2023-11-19T08:37:42;7.90;;;2.72;;
83306;SDS011;73223;48.584;13.460;2023-11-19T08:40:08;6.63;;;2.47;;
83306;SDS011;73223;48.584;13.460;2023-11-19T08:42:34;13.77;;;2.25;;
83306;SDS011;73223;48.584;13.460;2023-11-19T08:44:59;6.68;;;2.10;;
83306;SDS011;73223;48.584;13.460;2023-11-19T08:47:25;9.50;;;2.43;;
83306;SDS011;73223;48.584;13.460;2023-11-19T08:49:50;6.20;;;2.33;;
83306;SDS011;73223;48.584;13.460;2023-11-19T08:52:17;11.88;;;2.55;;
83306;SDS011;73223;48.584;13.460;2023-11-19T08:54:42;6.13;;;2.17;;
83306;SDS011;73223;48.584;13.460;2023-11-19T08:57:08;6.72;;;2.63;;
83306;SDS011;73223;48.584;13.460;2023-11-19T08:59:33;5.45;;;1.85;;
83306;SDS011;73223;48.584;13.460;2023-11-19T09:01:59;6.10;;;2.17;;
83306;SDS011;73223;48.584;13.460;2023-11-19T09:04:24;81.33;;;6.77;;
83306;SDS011;73223;48.584;13.460;2023-11-19T09:06:50;7.60;;;2.72;;
83306;SDS011;73223;48.584;13.460;2023-11-19T09:09:16;6.90;;;2.40;;
83306;SDS011;73223;48.584;13.460;2023-11-19T09:11:41;9.07;;;3.45;;
83306;SDS011;73223;48.584;13.460;2023-11-19T09:14:07;7.60;;;2.90;;
83306;SDS011;73223;48.584;13.460;2023-11-19T09:16:32;7.80;;;2.95;;
83306;SDS011;73223;48.584;13.460;2023-11-19T09:18:58;6.77;;;2.60;;
83306;SDS011;73223;48.584;13.460;2023-11-19T09:21:24;7.00;;;2.60;;
83306;SDS011;73223;48.584;13.460;2023-11-19T09:23:50;7.10;;;2.63;;
83306;SDS011;73223;48.584;13.460;2023-11-19T09:26:15;6.20;;;2.58;;
83306;SDS011;73223;48.584;13.460;2023-11-19T09:32:02;8.52;;;2.78;;
83306;SDS011;73223;48.584;13.460;2023-11-19T09:34:28;7.90;;;3.15;;
83306;SDS011;73223;48.584;13.460;2023-11-19T09:36:53;10.93;;;3.47;;
83306;SDS011;73223;48.584;13.460;2023-11-19T09:39:18;21.98;;;4.10;;
83306;SDS011;73223;48.584;13.460;2023-11-19T09:41:45;7.25;;;2.75;;
83306;SDS011;73223;48.584;13.460;2023-11-19T09:44:10;6.37;;;2.63;;
83306;SDS011;73223;48.584;13.460;2023-11-19T09:46:37;9.55;;;3.00;;
83306;SDS011;73223;48.584;13.460;2023-11-19T09:51:32;6.55;;;2.50;;
83306;SDS011;73223;48.584;13.460;2023-11-19T09:53:57;6.53;;;2.17;;
83306;SDS011;73223;48.584;13.460;2023-11-19T09:56:23;10.50;;;2.65;;
83306;SDS011;73223;48.584;13.460;2023-11-19T09:58:48;13.10;;;2.90;;
83306;SDS011;73223;48.584;13.460;2023-11-19T10:01:13;5.78;;;2.15;;
83306;SDS011;73223;48.584;13.460;2023-11-19T10:03:39;7.35;;;2.38;;
83306;SDS011;73223;48.584;13.460;2023-11-19T10:06:06;6.13;;;2.25;;
83306;SDS011;73223;48.584;13.460;2023-11-19T10:08:32;7.47;;;2.92;;
83306;SDS011;73223;48.584;13.460;2023-11-19T10:10:58;6.97;;;2.40;;
83306;SDS011;73223;48.584;13.460;2023-11-19T10:13:30;5.82;;;2.47;;
83306;SDS011;73223;48.584;13.460;2023-11-19T10:15:56;6.95;;;2.92;;
83306;SDS011;73223;48.584;13.460;2023-11-19T10:18:25;6.55;;;2.28;;
83306;SDS011;73223;48.584;13.460;2023-11-19T10:20:51;6.25;;;2.50;;
83306;SDS011;73223;48.584;13.460;2023-11-19T10:26:38;8.23;;;2.65;;
83306;SDS011;73223;48.584;13.460;2023-11-19T10:29:05;6.85;;;2.60;;
83306;SDS011;73223;48.584;13.460;2023-11-19T10:31:30;8.20;;;2.72;;
83306;SDS011;73223;48.584;13.460;2023-11-19T10:33:55;7.30;;;2.93;;
83306;SDS011;73223;48.584;13.460;2023-11-19T10:36:21;7.95;;;3.05;;
83306;SDS011;73223;48.584;13.460;2023-11-19T10:38:55;7.57;;;2.83;;
83306;SDS011;73223;48.584;13.460;2023-11-19T10:43:57;8.65;;;3.22;;
83306;SDS011;73223;48.584;13.460;2023-11-19T10:46:22;6.00;;;2.55;;
83306;SDS011;73223;48.584;13.460;2023-11-19T10:48:48;13.45;;;2.90;;
83306;SDS011;73223;48.584;13.460;2023-11-19T10:51:16;9.07;;;3.20;;
83306;SDS011;73223;48.584;13.460;2023-11-19T10:53:48;6.50;;;2.40;;
83306;SDS011;73223;48.584;13.460;2023-11-19T10:58:44;6.70;;;2.72;;
83306;SDS011;73223;48.584;13.460;2023-11-19T11:01:13;6.68;;;2.60;;
83306;SDS011;73223;48.584;13.460;2023-11-19T11:03:52;19.27;;;2.83;;
83306;SDS011;73223;48.584;13.460;2023-11-19T11:06:21;17.42;;;2.95;;
83306;SDS011;73223;48.584;13.460;2023-11-19T11:08:47;9.68;;;2.78;;
83306;SDS011;73223;48.584;13.460;2023-11-19T11:11:14;7.70;;;2.42;;
83306;SDS011;73223;48.584;13.460;2023-11-19T11:13:46;9.13;;;2.90;;
83306;SDS011;73223;48.584;13.460;2023-11-19T11:16:14;56.47;;;4.13;;
83306;SDS011;73223;48.584;13.460;2023-11-19T11:18:40;7.18;;;2.90;;
83306;SDS011;73223;48.584;13.460;2023-11-19T11:32:25;25.55;;;3.95;;
83306;SDS011;73223;48.584;13.460;2023-11-19T11:38:09;39.65;;;5.53;;
83306;SDS011;73223;48.584;13.460;2023-11-19T11:40:35;8.20;;;3.40;;
83306;SDS011;73223;48.584;13.460;2023-11-19T11:43:01;8.38;;;3.75;;
83306;SDS011;73223;48.584;13.460;2023-11-19T11:45:39;6.90;;;3.22;;
83306;SDS011;73223;48.584;13.460;2023-11-19T11:48:11;6.97;;;2.95;;
83306;SDS011;73223;48.584;13.460;2023-11-19T11:50:55;6.90;;;2.72;;
83306;SDS011;73223;48.584;13.460;2023-11-19T11:53:23;7.22;;;2.50;;
83306;SDS011;73223;48.584;13.460;2023-11-19T11:58:17;5.22;;;2.13;;
83306;SDS011;73223;48.584;13.460;2023-11-19T12:00:46;6.80;;;2.30;;
83306;SDS011;73223;48.584;13.460;2023-11-19T12:03:13;5.90;;;2.30;;
83306;SDS011;73223;48.584;13.460;2023-11-19T12:05:43;6.00;;;2.53;;
83306;SDS011;73223;48.584;13.460;2023-11-19T12:08:10;6.95;;;2.42;;
83306;SDS011;73223;48.584;13.460;2023-11-19T12:10:52;6.20;;;2.70;;
83306;SDS011;73223;48.584;13.460;2023-11-19T12:13:19;7.90;;;2.67;;
83306;SDS011;73223;48.584;13.460;2023-11-19T12:20:48;132.65;;;9.25;;
83306;SDS011;73223;48.584;13.460;2023-11-19T12:23:14;9.02;;;4.15;;
83306;SDS011;73223;48.584;13.460;2023-11-19T12:25:40;8.77;;;3.35;;
83306;SDS011;73223;48.584;13.460;2023-11-19T12:28:05;14.02;;;3.15;;
83306;SDS011;73223;48.584;13.460;2023-11-19T12:30:31;7.40;;;2.92;;
83306;SDS011;73223;48.584;13.460;2023-11-19T12:32:59;7.43;;;3.03;;
83306;SDS011;73223;48.584;13.460;2023-11-19T12:35:43;7.32;;;2.83;;
83306;SDS011;73223;48.584;13.460;2023-11-19T12:38:23;7.50;;;3.00;;
83306;SDS011;73223;48.584;13.460;2023-11-19T12:41:02;9.07;;;3.22;;
83306;SDS011;73223;48.584;13.460;2023-11-19T12:43:29;7.80;;;3.35;;
83306;SDS011;73223;48.584;13.460;2023-11-19T12:45:54;8.30;;;3.60;;
83306;SDS011;73223;48.584;13.460;2023-11-19T12:48:19;7.25;;;3.03;;
83306;SDS011;73223;48.584;13.460;2023-11-19T12:53:23;6.93;;;3.40;;
83306;SDS011;73223;48.584;13.460;2023-11-19T12:55:50;8.15;;;3.72;;
83306;SDS011;73223;48.584;13.460;2023-11-19T12:58:32;7.47;;;3.53;;
83306;SDS011;73223;48.584;13.460;2023-11-19T13:01:05;10.95;;;3.92;;
83306;SDS011;73223;48.584;13.460;2023-11-19T13:03:32;7.68;;;3.60;;
83306;SDS011;73223;48.584;13.460;2023-11-19T13:08:36;8.82;;;3.85;;
83306;SDS011;73223;48.584;13.460;2023-11-19T13:11:29;8.35;;;3.65;;
83306;SDS011;73223;48.584;13.460;2023-11-19T13:13:59;8.25;;;3.47;;
83306;SDS011;73223;48.584;13.460;2023-11-19T13:16:29;8.77;;;3.97;;
83306;SDS011;73223;48.584;13.460;2023-11-19T13:18:55;7.35;;;3.38;;
83306;SDS011;73223;48.584;13.460;2023-11-19T13:21:22;9.00;;;3.97;;
83306;SDS011;73223;48.584;13.460;2023-11-19T13:23:48;10.45;;;4.15;;
83306;SDS011;73223;48.584;13.460;2023-11-19T13:26:13;8.38;;;3.50;;
83306;SDS011;73223;48.584;13.460;2023-11-19T13:28:38;8.03;;;3.50;;
83306;SDS011;73223;48.584;13.460;2023-11-19T13:31:04;8.23;;;3.73;;
83306;SDS011;73223;48.584;13.460;2023-11-19T13:33:29;17.10;;;4.85;;
83306;SDS011;73223;48.584;13.460;2023-11-19T13:35:55;8.88;;;4.25;;
83306;SDS011;73223;48.584;13.460;2023-11-19T13:38:21;15.07;;;5.13;;
83306;SDS011;73223;48.584;13.460;2023-11-19T13:40:48;9.98;;;4.82;;
83306;SDS011;73223;48.584;13.460;2023-11-19T13:43:13;9.32;;;4.55;;
83306;SDS011;73223;48.584;13.460;2023-11-19T13:45:38;18.20;;;5.30;;
83306;SDS011;73223;48.584;13.460;2023-11-19T13:48:03;9.63;;;4.60;;
83306;SDS011;73223;48.584;13.460;2023-11-19T13:50:29;10.05;;;4.75;;
83306;SDS011;73223;48.584;13.460;2023-11-19T13:52:54;20.88;;;5.13;;
83306;SDS011;73223;48.584;13.460;2023-11-19T13:55:20;13.88;;;5.00;;
83306;SDS011;73223;48.584;13.460;2023-11-19T13:57:45;10.65;;;4.88;;
83306;SDS011;73223;48.584;13.460;2023-11-19T14:00:11;11.57;;;4.65;;
83306;SDS011;73223;48.584;13.460;2023-11-19T14:02:44;10.43;;;4.65;;
83306;SDS011;73223;48.584;13.460;2023-11-19T14:05:11;9.50;;;4.20;;
83306;SDS011;73223;48.584;13.460;2023-11-19T14:07:37;8.48;;;3.97;;
83306;SDS011;73223;48.584;13.460;2023-11-19T14:10:03;9.88;;;4.50;;
83306;SDS011;73223;48.584;13.460;2023-11-19T14:12:30;9.70;;;3.95;;
83306;SDS011;73223;48.584;13.460;2023-11-19T14:14:55;11.50;;;4.93;;
83306;SDS011;73223;48.584;13.460;2023-11-19T14:17:21;14.53;;;4.87;;
83306;SDS011;73223;48.584;13.460;2023-11-19T14:19:46;12.45;;;5.10;;
83306;SDS011;73223;48.584;13.460;2023-11-19T14:22:11;40.23;;;5.40;;
83306;SDS011;73223;48.584;13.460;2023-11-19T14:24:37;8.32;;;3.67;;
83306;SDS011;73223;48.584;13.460;2023-11-19T14:27:02;16.45;;;4.25;;
83306;SDS011;73223;48.584;13.460;2023-11-19T14:29:28;10.40;;;4.10;;
83306;SDS011;73223;48.584;13.460;2023-11-19T14:31:54;10.65;;;3.65;;
83306;SDS011;73223;48.584;13.460;2023-11-19T14:34:20;8.93;;;4.05;;
83306;SDS011;73223;48.584;13.460;2023-11-19T14:36:45;8.75;;;3.72;;
83306;SDS011;73223;48.584;13.460;2023-11-19T14:39:11;9.07;;;4.32;;
83306;SDS011;73223;48.584;13.460;2023-11-19T14:41:36;8.65;;;4.05;;
83306;SDS011;73223;48.584;13.460;2023-11-19T14:44:02;7.82;;;3.67;;
83306;SDS011;73223;48.584;13.460;2023-11-19T14:46:28;9.15;;;4.32;;
83306;SDS011;73223;48.584;13.460;2023-11-19T14:48:53;10.00;;;3.83;;
83306;SDS011;73223;48.584;13.460;2023-11-19T14:51:19;8.27;;;3.67;;
83306;SDS011;73223;48.584;13.460;2023-11-19T14:53:45;7.60;;;3.42;;
83306;SDS011;73223;48.584;13.460;2023-11-19T14:56:10;22.93;;;5.20;;
83306;SDS011;73223;48.584;13.460;2023-11-19T14:58:37;93.28;;;7.70;;
83306;SDS011;73223;48.584;13.460;2023-11-19T15:01:03;24.52;;;4.95;;
83306;SDS011;73223;48.584;13.460;2023-11-19T15:03:29;14.85;;;4.63;;
83306;SDS011;73223;48.584;13.460;2023-11-19T15:05:55;28.40;;;15.95;;
83306;SDS011;73223;48.584;13.460;2023-11-19T15:08:21;18.73;;;10.10;;
83306;SDS011;73223;48.584;13.460;2023-11-19T15:10:46;17.00;;;9.80;;
83306;SDS011;73223;48.584;13.460;2023-11-19T15:13:11;13.40;;;6.85;;
83306;SDS011;73223;48.584;13.460;2023-11-19T15:15:37;12.00;;;5.00;;
83306;SDS011;73223;48.584;13.460;2023-11-19T15:18:04;8.07;;;3.30;;